createdAt,value
2023-04-03T00:00:58.580Z,-1.00
2023-04-03T00:03:25.981Z,0.20
2023-04-03T00:05:53.470Z,0.80
2023-04-03T00:08:21.347Z,-1.10
2023-04-03T00:10:49.525Z,-1.40
2023-04-03T00:13:17.450Z,0.10
2023-04-03T00:15:45.549Z,1.60
2023-04-03T00:18:13.206Z,-1.20
2023-04-03T00:20:41.055Z,-0.90
2023-04-03T00:23:08.840Z,-1.10
2023-04-03T00:25:36.739Z,-1.10
2023-04-03T00:28:05.294Z,0.20
2023-04-03T00:30:33.267Z,1.10
2023-04-03T00:33:02.016Z,0.20
2023-04-03T00:35:30.437Z,-1.10
2023-04-03T00:37:58.197Z,-1.40
2023-04-03T00:40:28.037Z,-1.40
2023-04-03T00:43:01.037Z,-1.30
2023-04-03T00:45:42.410Z,1.70
2023-04-03T00:48:16.963Z,-0.60
2023-04-03T00:50:45.705Z,-2.00
2023-04-03T00:53:19.056Z,1.00
2023-04-03T00:55:48.636Z,1.20
2023-04-03T00:58:20.195Z,-1.30
2023-04-03T01:00:57.291Z,0.50
2023-04-03T01:03:25.236Z,-1.40
2023-04-03T01:05:52.733Z,-1.10
2023-04-03T01:08:20.129Z,0.90
2023-04-03T01:10:47.523Z,-1.50
2023-04-03T01:13:32.822Z,-1.40
2023-04-03T01:16:05.776Z,-1.20
2023-04-03T01:18:34.621Z,0.00
2023-04-03T01:21:39.601Z,-1.30
2023-04-03T01:24:28.731Z,-1.20
2023-04-03T01:26:56.649Z,-1.40
2023-04-03T01:29:24.119Z,-1.40
2023-04-03T01:31:57.082Z,0.70
2023-04-03T01:34:25.853Z,-1.60
2023-04-03T01:36:53.847Z,-1.30
2023-04-03T01:39:22.163Z,-1.10
2023-04-03T01:41:50.564Z,-1.50
2023-04-03T01:44:18.309Z,-1.60
2023-04-03T01:46:45.905Z,-1.60
2023-04-03T01:49:13.457Z,-1.70
2023-04-03T01:51:40.821Z,-1.60
2023-04-03T01:54:08.297Z,0.10
2023-04-03T01:56:35.632Z,-1.40
2023-04-03T01:59:03.100Z,-1.80
2023-04-03T02:01:30.516Z,0.20
2023-04-03T02:03:58.097Z,-0.70
2023-04-03T02:06:26.366Z,-2.10
2023-04-03T02:08:53.709Z,-1.60
2023-04-03T02:11:21.357Z,-1.80
2023-04-03T02:13:48.702Z,-1.90
2023-04-03T02:16:16.100Z,0.20
2023-04-03T02:18:43.765Z,-0.10
2023-04-03T02:21:11.189Z,-2.00
2023-04-03T02:23:38.881Z,-2.10
2023-04-03T02:26:08.513Z,-2.10
2023-04-03T02:28:36.670Z,-1.80
2023-04-03T02:31:05.111Z,-2.40
2023-04-03T02:33:32.586Z,-0.10
2023-04-03T02:36:00.453Z,-1.80
2023-04-03T02:38:28.120Z,-2.10
2023-04-03T02:41:01.963Z,-2.10
2023-04-03T02:43:29.509Z,-1.50
2023-04-03T02:45:57.146Z,-2.40
2023-04-03T02:48:25.669Z,-1.80
2023-04-03T02:50:53.489Z,0.60
2023-04-03T02:53:21.283Z,-2.30
2023-04-03T02:55:48.811Z,-2.30
2023-04-03T02:58:16.450Z,-2.90
2023-04-03T03:00:44.100Z,-2.40
2023-04-03T03:03:11.414Z,-2.40
2023-04-03T03:05:38.820Z,-2.20
2023-04-03T03:08:06.852Z,-2.10
2023-04-03T03:10:34.433Z,-2.60
2023-04-03T03:13:02.360Z,-1.40
2023-04-03T03:15:29.840Z,-2.60
2023-04-03T03:17:57.388Z,-2.60
2023-04-03T03:20:24.829Z,-2.30
2023-04-03T03:22:52.284Z,-2.50
2023-04-03T03:25:19.751Z,-3.50
2023-04-03T03:27:47.241Z,-2.70
2023-04-03T03:30:14.732Z,-2.70
2023-04-03T03:32:42.317Z,-2.40
2023-04-03T03:35:09.909Z,-2.40
2023-04-03T03:37:37.310Z,-2.40
2023-04-03T03:40:04.993Z,-2.50
2023-04-03T03:42:32.323Z,-2.50
2023-04-03T03:44:59.816Z,-2.60
2023-04-03T03:47:27.259Z,-2.60
2023-04-03T03:49:54.603Z,-2.20
2023-04-03T03:52:22.102Z,-2.70
2023-04-03T03:54:49.456Z,-2.80
2023-04-03T03:57:17.676Z,-2.70
2023-04-03T03:59:45.535Z,-2.70
2023-04-03T04:02:13.385Z,-2.80
2023-04-03T04:04:40.782Z,-3.00
2023-04-03T04:07:08.416Z,-2.80
2023-04-03T04:09:35.902Z,-2.90
2023-04-03T04:12:03.354Z,-2.90
2023-04-03T04:14:31.070Z,-2.90
2023-04-03T04:16:58.580Z,-2.90
2023-04-03T04:19:26.071Z,-2.70
2023-04-03T04:21:53.432Z,-2.70
2023-04-03T04:24:21.041Z,-2.80
2023-04-03T04:26:48.465Z,-2.60
2023-04-03T04:29:16.069Z,-3.00
2023-04-03T04:31:43.348Z,-2.40
2023-04-03T04:34:10.840Z,-2.70
2023-04-03T04:36:38.576Z,-2.40
2023-04-03T04:39:06.447Z,-2.70
2023-04-03T04:41:34.715Z,-0.30
2023-04-03T04:44:02.169Z,-2.70
2023-04-03T04:46:29.651Z,-2.90
2023-04-03T04:48:57.243Z,-2.90
2023-04-03T04:51:24.655Z,-2.80
2023-04-03T04:53:53.586Z,-2.80
2023-04-03T04:56:23.161Z,-2.60
2023-04-03T04:58:50.635Z,-2.60
2023-04-03T05:01:18.350Z,-0.60
2023-04-03T05:03:46.113Z,-2.60
2023-04-03T05:06:13.825Z,-1.60
2023-04-03T05:08:41.513Z,-2.40
2023-04-03T05:11:09.496Z,0.40
2023-04-03T05:13:36.975Z,-2.40
2023-04-03T05:16:05.406Z,0.10
2023-04-03T05:18:33.357Z,-2.40
2023-04-03T05:21:01.698Z,-2.40
2023-04-03T05:23:29.251Z,-2.40
2023-04-03T05:25:57.231Z,0.00
2023-04-03T05:28:25.454Z,-0.10
2023-04-03T05:31:00.246Z,-1.30
2023-04-03T05:33:28.399Z,-1.30
2023-04-03T05:35:59.382Z,0.50
2023-04-03T05:38:27.839Z,-2.00
2023-04-03T05:40:56.774Z,-2.00
2023-04-03T05:43:25.665Z,0.80
2023-04-03T05:46:05.823Z,-1.90
2023-04-03T05:48:33.559Z,-2.90
2023-04-03T05:51:01.258Z,0.10
2023-04-03T05:53:32.060Z,-1.00
2023-04-03T05:55:59.904Z,-1.60
2023-04-03T05:58:29.692Z,1.20
2023-04-03T06:00:59.383Z,-1.40
2023-04-03T06:03:28.954Z,-1.40
2023-04-03T06:10:04.893Z,-1.20
2023-04-03T06:12:34.323Z,0.90
2023-04-03T06:15:03.754Z,0.10
2023-04-03T06:17:34.314Z,-2.20
2023-04-03T06:20:02.304Z,1.00
2023-04-03T06:22:34.423Z,-0.50
2023-04-03T06:28:20.774Z,-1.00
2023-04-03T06:31:16.268Z,-0.90
2023-04-03T06:33:47.354Z,-0.60
2023-04-03T06:36:22.350Z,1.60
2023-04-03T06:38:52.684Z,0.90
2023-04-03T06:41:24.966Z,-0.30
2023-04-03T06:43:57.697Z,-0.90
2023-04-03T06:46:31.688Z,-0.70
2023-04-03T06:49:03.569Z,-0.70
2023-04-03T06:51:38.721Z,-0.60
2023-04-03T06:54:14.408Z,-0.60
2023-04-03T06:56:43.888Z,2.80
2023-04-03T06:59:16.562Z,0.60
2023-04-03T07:08:58.034Z,-0.20
2023-04-03T07:11:30.546Z,0.50
2023-04-03T07:14:05.626Z,-0.20
2023-04-03T07:16:36.165Z,0.00
2023-04-03T07:19:11.387Z,0.10
2023-04-03T07:21:43.021Z,0.10
2023-04-03T07:24:16.955Z,0.20
2023-04-03T07:26:58.132Z,1.30
2023-04-03T07:29:28.310Z,0.70
2023-04-03T07:31:59.774Z,2.70
2023-04-03T07:34:28.401Z,0.20
2023-04-03T07:36:56.332Z,0.50
2023-04-03T07:40:00.721Z,1.00
2023-04-03T07:42:29.159Z,0.80
2023-04-03T07:44:57.906Z,4.00
2023-04-03T07:47:25.963Z,1.00
2023-04-03T07:49:53.712Z,1.10
2023-04-03T07:52:22.190Z,3.10
2023-04-03T07:54:50.089Z,2.80
2023-04-03T07:57:17.728Z,2.80
2023-04-03T07:59:54.412Z,2.80
2023-04-03T08:02:30.900Z,1.30
2023-04-03T08:05:04.530Z,2.80
2023-04-03T08:07:32.572Z,1.20
2023-04-03T08:10:00.321Z,4.20
2023-04-03T08:12:29.693Z,1.00
2023-04-03T08:14:57.655Z,3.40
2023-04-03T08:17:25.489Z,1.40
2023-04-03T08:19:53.924Z,1.60
2023-04-03T08:22:21.989Z,1.30
2023-04-03T08:24:58.580Z,3.00
2023-04-03T08:27:28.348Z,1.40
2023-04-03T08:30:20.729Z,1.50
2023-04-03T08:33:03.082Z,1.30
2023-04-03T08:35:31.765Z,3.80
2023-04-03T08:38:04.895Z,3.40
2023-04-03T08:41:12.913Z,0.90
2023-04-03T08:44:18.896Z,2.40
2023-04-03T08:47:05.797Z,1.40
2023-04-03T08:49:53.934Z,1.30
2023-04-03T08:52:57.757Z,2.40
2023-04-03T08:55:39.099Z,1.30
2023-04-03T08:58:13.869Z,3.60
2023-04-03T09:01:07.732Z,1.40
2023-04-03T09:03:45.195Z,1.50
2023-04-03T09:06:17.237Z,1.70
2023-04-03T09:08:51.733Z,3.70
2023-04-03T09:15:39.823Z,2.10
2023-04-03T09:18:20.969Z,1.60
2023-04-03T09:21:08.395Z,1.60
2023-04-03T09:24:09.019Z,1.70
2023-04-03T09:26:46.494Z,1.60
2023-04-03T09:29:24.818Z,1.90
2023-04-03T09:32:00.466Z,1.70
2023-04-03T09:35:32.898Z,3.50
2023-04-03T09:38:12.079Z,2.70
2023-04-03T09:40:44.839Z,2.10
2023-04-03T09:43:18.461Z,2.40
2023-04-03T09:45:47.643Z,3.70
2023-04-03T09:48:16.685Z,2.00
2023-04-03T09:51:05.644Z,1.90
2023-04-03T09:53:42.080Z,1.90
2023-04-03T09:56:19.460Z,2.60
2023-04-03T09:58:51.143Z,2.80
2023-04-03T10:01:31.202Z,3.50
2023-04-03T10:04:17.582Z,2.20
2023-04-03T10:06:48.173Z,2.10
2023-04-03T10:09:23.662Z,4.20
2023-04-03T10:12:16.573Z,2.80
2023-04-03T10:15:04.341Z,1.30
2023-04-03T10:18:11.448Z,3.30
2023-04-03T10:20:52.451Z,4.20
2023-04-03T10:23:29.721Z,4.30
2023-04-03T10:26:26.223Z,3.90
2023-04-03T10:29:04.427Z,3.90
2023-04-03T10:32:08.369Z,4.10
2023-04-03T10:34:46.763Z,4.20
2023-04-03T10:37:27.523Z,4.30
2023-04-03T10:40:00.456Z,4.40
2023-04-03T10:42:45.978Z,4.40
2023-04-03T10:45:20.116Z,5.40
2023-04-03T10:48:11.090Z,4.00
2023-04-03T10:50:46.659Z,4.70
2023-04-03T10:53:52.336Z,4.90
2023-04-03T10:57:04.444Z,5.40
2023-04-03T10:59:47.843Z,5.30
2023-04-03T11:02:49.871Z,5.00
2023-04-03T11:05:37.775Z,4.60
2023-04-03T11:08:28.843Z,4.50
2023-04-03T11:11:03.945Z,4.80
2023-04-03T11:13:56.332Z,4.40
2023-04-03T11:16:32.035Z,4.60
2023-04-03T11:19:02.938Z,4.70
2023-04-03T11:21:36.797Z,5.50
2023-04-03T11:24:11.412Z,4.90
2023-04-03T11:26:43.608Z,4.60
2023-04-03T11:29:34.364Z,4.50
2023-04-03T11:32:23.042Z,4.70
2023-04-03T11:34:54.633Z,4.60
2023-04-03T11:37:54.384Z,5.50
2023-04-03T11:40:29.208Z,4.40
2023-04-03T11:43:16.313Z,4.70
2023-04-03T11:46:08.320Z,4.60
2023-04-03T11:48:35.762Z,4.50
2023-04-03T11:51:18.734Z,5.50
2023-04-03T11:53:46.910Z,4.50
2023-04-03T11:56:29.198Z,4.70
2023-04-03T11:59:11.865Z,5.00
2023-04-03T12:01:54.100Z,3.70
2023-04-03T12:04:25.049Z,4.40
2023-04-03T12:07:19.102Z,4.60
2023-04-03T12:09:46.433Z,4.20
2023-04-03T12:12:30.858Z,5.00
2023-04-03T12:15:20.045Z,5.50
2023-04-03T12:17:48.372Z,4.40
2023-04-03T12:20:50.116Z,4.10
2023-04-03T12:23:33.794Z,4.20
2023-04-03T12:26:23.930Z,4.20
2023-04-03T12:28:54.312Z,4.30
2023-04-03T12:31:28.468Z,4.10
2023-04-03T12:34:19.388Z,3.80
2023-04-03T12:36:58.871Z,3.40
2023-04-03T12:39:52.673Z,3.40
2023-04-03T12:43:04.196Z,4.70
2023-04-03T12:45:47.121Z,3.20
2023-04-03T12:48:23.202Z,3.20
2023-04-03T12:50:51.500Z,3.80
2023-04-03T12:53:26.304Z,3.40
2023-04-03T12:56:18.462Z,3.40
2023-04-03T12:58:46.346Z,3.30
2023-04-03T13:01:19.562Z,4.50
2023-04-03T13:03:49.820Z,3.50
2023-04-03T13:06:24.656Z,3.20
2023-04-03T13:08:54.816Z,3.70
2023-04-03T13:11:23.448Z,4.70
2023-04-03T13:14:04.292Z,3.10
2023-04-03T13:16:32.836Z,3.70
2023-04-03T13:19:00.791Z,3.80
2023-04-03T13:21:31.783Z,4.20
2023-04-03T13:24:14.024Z,2.90
2023-04-03T13:26:44.077Z,3.80
2023-04-03T13:29:31.047Z,3.00
2023-04-03T13:32:01.037Z,2.90
2023-04-03T13:34:36.340Z,2.90
2023-04-03T13:37:05.523Z,3.90
2023-04-03T13:39:35.408Z,3.50
2023-04-03T13:42:24.084Z,3.20
2023-04-03T13:45:18.142Z,3.20
2023-04-03T13:47:47.552Z,3.30
2023-04-03T13:50:21.854Z,4.80
2023-04-03T13:53:02.315Z,3.20
2023-04-03T13:55:33.485Z,3.10
2023-04-03T13:58:23.129Z,3.10
2023-04-03T14:01:16.380Z,4.30
2023-04-03T14:03:59.349Z,3.10
2023-04-03T14:06:27.666Z,3.00
2023-04-03T14:08:55.187Z,3.00
2023-04-03T14:11:31.245Z,3.20
2023-04-03T14:14:05.711Z,3.20
2023-04-03T14:16:38.629Z,3.80
2023-04-03T14:19:06.312Z,3.40
2023-04-03T14:21:34.048Z,3.10
2023-04-03T14:24:01.770Z,4.10
2023-04-03T14:26:31.369Z,4.60
2023-04-03T14:28:58.852Z,2.90
2023-04-03T14:31:26.748Z,3.10
2023-04-03T14:33:54.346Z,3.30
2023-04-03T14:36:27.279Z,3.00
2023-04-03T14:38:55.911Z,3.10
2023-04-03T14:41:25.227Z,4.30
2023-04-03T14:43:53.080Z,2.90
2023-04-03T14:46:38.661Z,3.10
2023-04-03T14:49:26.393Z,2.80
2023-04-03T14:51:54.049Z,3.40
2023-04-03T14:54:26.753Z,2.70
2023-04-03T14:56:56.588Z,4.40
2023-04-03T14:59:24.446Z,2.80
2023-04-03T15:01:51.884Z,3.30
2023-04-03T15:04:21.947Z,4.80
2023-04-03T15:06:50.500Z,3.40
2023-04-03T15:09:28.289Z,2.90
2023-04-03T15:11:56.723Z,2.80
2023-04-03T15:14:35.832Z,2.80
2023-04-03T15:17:17.408Z,2.80
2023-04-03T15:19:45.591Z,2.80
2023-04-03T15:22:19.536Z,3.10
2023-04-03T15:24:47.526Z,2.80
2023-04-03T15:27:16.500Z,3.00
2023-04-03T15:29:45.980Z,2.90
2023-04-03T15:32:14.216Z,2.80
2023-04-03T15:34:41.914Z,2.70
2023-04-03T15:37:09.558Z,2.80
2023-04-03T15:39:36.925Z,2.70
2023-04-03T15:42:07.333Z,2.90
2023-04-03T15:44:36.328Z,2.70
2023-04-03T15:47:04.421Z,3.20
2023-04-03T15:49:35.007Z,2.60
2023-04-03T15:52:02.665Z,3.90
2023-04-03T15:54:30.639Z,3.30
2023-04-03T15:56:58.559Z,3.00
2023-04-03T15:59:26.023Z,2.70
2023-04-03T16:01:53.822Z,2.60
2023-04-03T16:04:22.221Z,2.60
2023-04-03T16:06:50.704Z,2.50
2023-04-03T16:09:18.642Z,2.50
2023-04-03T16:11:46.110Z,2.40
2023-04-03T16:14:13.653Z,3.80
2023-04-03T16:16:41.269Z,4.40
2023-04-03T16:19:09.814Z,4.40
2023-04-03T16:21:37.364Z,3.60
2023-04-03T16:24:05.452Z,2.80
2023-04-03T16:26:32.812Z,2.20
2023-04-03T16:29:00.570Z,4.10
2023-04-03T16:31:29.386Z,1.70
2023-04-03T16:33:57.602Z,3.30
2023-04-03T16:36:26.871Z,3.80
2023-04-03T16:38:54.637Z,4.20
2023-04-03T16:41:22.250Z,2.10
2023-04-03T16:43:51.218Z,2.90
2023-04-03T16:46:18.882Z,1.80
2023-04-03T16:48:46.326Z,-0.20
2023-04-03T16:51:14.469Z,4.10
2023-04-03T16:53:41.898Z,1.90
2023-04-03T16:56:09.534Z,2.30
2023-04-03T16:58:36.929Z,2.30
2023-04-03T17:01:13.602Z,1.80
2023-04-03T17:03:41.520Z,1.90
2023-04-03T17:06:09.133Z,2.60
2023-04-03T17:08:36.587Z,3.30
2023-04-03T17:11:04.062Z,1.60
2023-04-03T17:13:33.209Z,1.40
2023-04-03T17:16:01.269Z,3.00
2023-04-03T17:18:28.769Z,2.60
2023-04-03T17:20:57.689Z,1.40
2023-04-03T17:23:26.898Z,3.30
2023-04-03T17:25:55.285Z,2.90
2023-04-03T17:28:28.321Z,2.90
2023-04-03T17:30:57.275Z,2.50
2023-04-03T17:33:25.020Z,2.70
2023-04-03T17:35:52.809Z,2.60
2023-04-03T17:38:20.240Z,1.50
2023-04-03T17:40:47.600Z,3.60
2023-04-03T17:43:16.293Z,3.10
2023-04-03T17:45:43.809Z,3.40
2023-04-03T17:48:11.313Z,3.00
2023-04-03T17:50:38.727Z,1.50
2023-04-03T17:53:06.230Z,3.10
2023-04-03T17:55:33.611Z,2.50
2023-04-03T17:58:01.173Z,2.60
2023-04-03T18:00:28.542Z,2.40
2023-04-03T18:02:56.538Z,1.00
2023-04-03T18:05:28.337Z,0.60
2023-04-03T18:07:57.757Z,3.50
2023-04-03T18:10:25.436Z,2.10
2023-04-03T18:12:53.958Z,0.50
2023-04-03T18:15:21.422Z,1.10
2023-04-03T18:17:50.507Z,2.60
2023-04-03T18:20:18.278Z,2.60
2023-04-03T18:22:45.788Z,2.60
2023-04-03T18:25:14.398Z,0.20
2023-04-03T18:27:43.839Z,0.20
2023-04-03T18:30:15.066Z,2.10
2023-04-03T18:32:43.252Z,0.20
2023-04-03T18:35:11.739Z,0.10
2023-04-03T18:37:39.169Z,0.10
2023-04-03T18:40:07.386Z,0.10
2023-04-03T19:09:45.916Z,-0.30
2023-04-03T19:12:13.300Z,-0.30
2023-04-03T19:14:40.697Z,-0.50
2023-04-03T19:19:36.444Z,-0.40
2023-04-03T19:22:03.933Z,-0.30
2023-04-03T19:24:31.383Z,-0.30
2023-04-03T19:26:58.803Z,-0.40
2023-04-03T19:29:26.172Z,-0.50
2023-04-03T19:31:53.753Z,-0.40
2023-04-03T19:34:21.349Z,1.40
2023-04-03T19:36:49.520Z,-0.30
2023-04-03T19:39:17.101Z,-0.50
2023-04-03T19:41:46.277Z,-0.50
2023-04-03T19:44:13.646Z,1.50
2023-04-03T19:46:41.249Z,2.10
2023-04-03T19:49:19.851Z,2.10
2023-04-03T19:51:47.210Z,1.60
2023-04-03T19:54:14.484Z,2.60
2023-04-03T19:56:41.901Z,3.00
2023-04-03T19:59:09.285Z,2.60
2023-04-03T20:01:36.833Z,0.90
2023-04-03T20:04:04.631Z,0.00
2023-04-03T20:06:32.439Z,0.00
2023-04-03T20:09:00.165Z,-0.60
2023-04-03T20:11:28.134Z,-0.70
2023-04-03T20:13:55.847Z,1.60
2023-04-03T20:16:25.872Z,-0.80
2023-04-03T20:18:55.827Z,-0.80
2023-04-03T20:21:34.063Z,0.30
2023-04-03T20:24:02.720Z,1.80
2023-04-03T20:26:32.839Z,-1.00
2023-04-03T20:29:03.048Z,-1.00
2023-04-03T20:31:32.860Z,-0.90
2023-04-03T20:34:00.457Z,-1.00
2023-04-03T20:36:29.782Z,-1.10
2023-04-03T20:38:57.799Z,-1.00
2023-04-03T20:41:26.251Z,-1.00
2023-04-03T20:43:53.689Z,-1.00
2023-04-03T20:46:22.947Z,-1.00
2023-04-03T20:48:50.640Z,-1.20
2023-04-03T20:51:20.224Z,0.50
2023-04-03T20:53:48.270Z,-1.20
2023-04-03T20:56:16.652Z,1.90
2023-04-03T20:58:46.504Z,-1.30
2023-04-03T21:01:23.063Z,-1.20
2023-04-03T21:03:55.209Z,-1.30
2023-04-03T21:07:03.218Z,0.50
2023-04-03T21:10:08.435Z,-1.30
2023-04-03T21:13:13.291Z,-1.40
2023-04-03T21:15:46.634Z,-1.50
2023-04-03T21:18:15.745Z,-1.50
2023-04-03T21:20:47.581Z,-1.50
2023-04-03T21:23:15.863Z,-1.50
2023-04-03T21:25:43.544Z,-1.50
2023-04-03T21:28:11.429Z,-1.50
2023-04-03T21:30:38.826Z,-1.50
2023-04-03T21:33:06.240Z,-1.60
2023-04-03T21:35:33.796Z,-1.60
2023-04-03T21:38:01.183Z,-1.60
2023-04-03T21:40:28.653Z,-1.30
2023-04-03T21:42:56.315Z,-0.90
2023-04-03T21:45:23.781Z,-1.70
2023-04-03T21:47:51.856Z,-1.80
2023-04-03T21:50:19.525Z,-1.80
2023-04-03T21:52:47.033Z,-1.90
2023-04-03T21:55:15.524Z,-1.90
2023-04-03T21:57:43.780Z,-1.20
2023-04-03T22:00:11.698Z,-2.40
2023-04-03T22:02:45.171Z,-2.10
2023-04-03T22:05:12.704Z,-1.50
2023-04-03T22:07:40.176Z,-0.90
2023-04-03T22:10:08.053Z,-2.50
2023-04-03T22:12:35.635Z,-2.20
2023-04-03T22:15:03.098Z,-2.60
2023-04-03T22:17:31.314Z,-2.30
2023-04-03T22:19:58.841Z,-2.80
2023-04-03T22:22:26.632Z,-2.40
2023-04-03T22:24:54.135Z,-2.60
2023-04-03T22:27:21.526Z,-2.50
2023-04-03T22:29:49.014Z,-2.50
2023-04-03T22:32:16.485Z,-2.60
2023-04-03T22:34:43.993Z,-2.70
2023-04-03T22:37:12.159Z,-3.00
2023-04-03T22:39:39.610Z,0.30
2023-04-03T22:42:07.853Z,-2.80
2023-04-03T22:44:36.671Z,-2.90
2023-04-03T22:47:04.223Z,-2.60
2023-04-03T22:49:32.310Z,-2.60
2023-04-03T22:52:00.126Z,-2.80
2023-04-03T22:54:27.658Z,-3.00
2023-04-03T22:56:55.584Z,-2.90
2023-04-03T22:59:22.900Z,-2.80
2023-04-03T23:01:50.536Z,-2.90
2023-04-03T23:04:18.548Z,0.70
2023-04-03T23:06:45.908Z,-1.80
2023-04-03T23:09:14.719Z,-2.80
2023-04-03T23:11:43.046Z,-2.80
2023-04-03T23:14:10.468Z,-2.60
2023-04-03T23:16:38.037Z,-2.70
2023-04-03T23:19:05.940Z,-1.80
2023-04-03T23:21:34.039Z,-2.70
2023-04-03T23:31:26.093Z,-2.60
2023-04-03T23:33:53.438Z,-3.30
2023-04-03T23:36:21.359Z,-3.10
2023-04-03T23:38:49.136Z,-2.90
2023-04-03T23:41:16.808Z,-3.00
2023-04-03T23:43:46.604Z,-2.90
2023-04-03T23:51:09.519Z,-2.50
2023-04-03T23:53:36.805Z,-3.00
2023-04-03T23:56:09.774Z,-3.10
2023-04-03T23:58:37.377Z,-3.00
